Time;durP1;ratioP1;P1;durP2;ratioP2;P2;SDS_P1;SDS_P2;PMS_P1;PMS_P2;Temp;Humidity;BMP_temperature;BMP_pressure;BME280_temperature;BME280_humidity;BME280_pressure;Samples;Min_cycle;Max_cycle;Signal;HPM_P1;HPM_P2
2022/07/28 00:00:44;;;;;;;;;;;11.00;99.90;;;;;;5137707;27;19915;-70
2022/07/28 00:03:09;;;;;;;;;;;10.90;99.90;;;;;;5101238;28;19919;-70
2022/07/28 00:05:35;;;;;;;;;;;10.90;99.90;;;;;;5093121;28;19919;-70
2022/07/28 00:08:01;;;;;;;;;;;10.90;99.90;;;;;;5100709;28;19988;-69
2022/07/28 00:10:26;;;;;;;;;;;10.80;99.90;;;;;;5124656;28;19915;-70
2022/07/28 00:12:52;;;;;;;;;;;10.80;99.90;;;;;;5111236;28;19919;-70
2022/07/28 00:15:17;;;;;;;;;;;10.70;99.90;;;;;;5097040;28;19998;-70
2022/07/28 00:17:43;;;;;;;;;;;10.70;99.90;;;;;;5142800;27;19946;-70
2022/07/28 00:20:09;;;;;;;;;;;10.70;99.90;;;;;;5091314;28;19926;-70
2022/07/28 00:22:39;;;;;;;;;;;10.70;99.90;;;;;;5092023;28;20342;-70
2022/07/28 00:25:05;;;;;;;;;;;10.70;99.90;;;;;;5098346;28;20010;-70
2022/07/28 00:27:31;;;;;;;;;;;10.60;99.90;;;;;;5096988;28;20386;-69
2022/07/28 00:29:56;;;;;;;;;;;10.60;99.90;;;;;;5093430;27;19915;-70
2022/07/28 00:32:22;;;;;;;;;;;10.50;99.90;;;;;;5127229;27;20359;-70
2022/07/28 00:34:47;;;;;;;;;;;10.60;99.90;;;;;;5143802;27;19922;-70
2022/07/28 00:37:13;;;;;;;;;;;10.60;99.90;;;;;;5094056;28;19924;-70
2022/07/28 00:39:38;;;;;;;;;;;10.50;99.90;;;;;;5130263;27;19942;-70
2022/07/28 00:42:04;;;;;;;;;;;10.50;99.90;;;;;;5095206;28;19919;-70
2022/07/28 00:44:30;;;;;;;;;;;10.60;99.90;;;;;;5097438;28;19920;-70
2022/07/28 00:46:56;;;;;;;;;;;10.50;99.90;;;;;;5129978;27;19919;-70
2022/07/28 00:49:21;;;;;;;;;;;10.50;99.90;;;;;;5101829;28;19924;-70
2022/07/28 00:51:47;;;;;;;;;;;10.50;99.90;;;;;;5126170;27;19916;-70
2022/07/28 00:54:12;;;;;;;;;;;10.50;99.90;;;;;;5134250;27;19920;-70
2022/07/28 00:56:38;;;;;;;;;;;10.50;99.90;;;;;;5135879;27;19930;-70
2022/07/28 00:59:04;;;;;;;;;;;10.60;99.90;;;;;;5138536;27;19973;-70
2022/07/28 01:01:29;;;;;;;;;;;10.50;99.90;;;;;;5117677;27;19916;-70
2022/07/28 01:03:56;;;;;;;;;;;10.50;99.90;;;;;;5138795;27;20414;-70
2022/07/28 01:06:32;;;;;;;;;;;10.60;99.90;;;;;;5095865;28;19919;-70
2022/07/28 01:09:02;;;;;;;;;;;10.60;99.90;;;;;;5090192;27;20015;-70
2022/07/28 01:11:33;;;;;;;;;;;10.50;99.90;;;;;;5103671;27;19919;-70
2022/07/28 01:14:07;;;;;;;;;;;10.60;99.90;;;;;;5096037;27;20354;-70
2022/07/28 01:16:37;;;;;;;;;;;10.50;99.90;;;;;;5102535;27;19934;-70
2022/07/28 01:19:08;;;;;;;;;;;10.50;99.90;;;;;;5127148;27;19920;-70
2022/07/28 01:21:35;;;;;;;;;;;10.50;99.90;;;;;;5097130;28;19915;-70
2022/07/28 01:24:09;;;;;;;;;;;10.50;99.90;;;;;;5106522;28;19919;-70
2022/07/28 01:27:01;;;;;;;;;;;10.40;99.90;;;;;;5087395;27;20596;-70
2022/07/28 01:29:33;;;;;;;;;;;10.40;99.90;;;;;;5062206;28;19924;-70
2022/07/28 01:32:05;;;;;;;;;;;10.40;99.90;;;;;;5126391;27;20010;-70
2022/07/28 01:34:34;;;;;;;;;;;10.50;99.90;;;;;;5128257;27;19936;-70
2022/07/28 01:37:07;;;;;;;;;;;10.50;99.90;;;;;;5078423;28;19920;-70
2022/07/28 01:39:33;;;;;;;;;;;10.50;99.90;;;;;;5095020;28;19970;-70
2022/07/28 01:42:00;;;;;;;;;;;10.50;99.90;;;;;;5097910;27;20011;-70
2022/07/28 01:44:27;;;;;;;;;;;10.50;99.90;;;;;;5080876;27;19919;-70
2022/07/28 01:46:53;;;;;;;;;;;10.50;99.90;;;;;;5136788;27;20002;-70
2022/07/28 01:49:20;;;;;;;;;;;10.50;99.90;;;;;;5134045;27;19947;-70
2022/07/28 01:51:46;;;;;;;;;;;10.50;99.90;;;;;;5127420;27;19920;-70
2022/07/28 01:54:13;;;;;;;;;;;10.40;99.90;;;;;;5097705;27;19916;-70
2022/07/28 01:56:40;;;;;;;;;;;10.50;99.90;;;;;;5118251;27;20042;-70
2022/07/28 01:59:08;;;;;;;;;;;10.40;99.90;;;;;;5099133;27;19927;-70
2022/07/28 02:01:40;;;;;;;;;;;10.40;99.90;;;;;;5124833;27;19965;-70
2022/07/28 02:04:06;;;;;;;;;;;10.50;99.90;;;;;;5101568;27;20374;-70
2022/07/28 02:06:33;;;;;;;;;;;10.40;99.90;;;;;;5115458;27;20033;-70
2022/07/28 02:08:59;;;;;;;;;;;10.40;99.90;;;;;;5099676;27;19957;-70
2022/07/28 02:11:41;;;;;;;;;;;10.50;99.90;;;;;;5097155;28;19958;-70
2022/07/28 02:14:11;;;;;;;;;;;10.50;99.90;;;;;;5129941;27;20443;-70
2022/07/28 02:16:40;;;;;;;;;;;10.60;99.90;;;;;;5127553;27;19996;-70
2022/07/28 02:19:06;;;;;;;;;;;10.60;99.90;;;;;;5097871;27;19919;-70
2022/07/28 02:21:33;;;;;;;;;;;10.70;99.90;;;;;;5130408;27;20065;-70
2022/07/28 02:23:59;;;;;;;;;;;10.60;99.90;;;;;;5108263;27;19919;-70
2022/07/28 02:26:32;;;;;;;;;;;10.60;99.90;;;;;;5136820;27;19960;-70
2022/07/28 02:29:00;;;;;;;;;;;10.60;99.90;;;;;;5100757;28;19923;-70
2022/07/28 02:31:27;;;;;;;;;;;10.60;99.90;;;;;;5145124;27;19930;-70
2022/07/28 02:33:57;;;;;;;;;;;10.60;99.90;;;;;;5096037;28;19929;-70
2022/07/28 02:36:36;;;;;;;;;;;10.60;99.90;;;;;;5093106;28;20389;-70
2022/07/28 02:39:06;;;;;;;;;;;10.40;99.90;;;;;;5127890;27;19915;-70
2022/07/28 02:41:35;;;;;;;;;;;10.50;99.90;;;;;;5093022;28;19927;-70
2022/07/28 02:44:03;;;;;;;;;;;10.40;99.90;;;;;;5139343;27;20449;-69
2022/07/28 02:46:33;;;;;;;;;;;10.40;99.90;;;;;;5075183;28;20006;-70
2022/07/28 02:49:01;;;;;;;;;;;10.40;99.90;;;;;;5110083;28;19965;-70
2022/07/28 02:51:28;;;;;;;;;;;10.30;99.90;;;;;;5092948;28;19966;-70
2022/07/28 02:53:54;;;;;;;;;;;10.40;99.90;;;;;;5127838;27;19968;-70
2022/07/28 02:56:20;;;;;;;;;;;10.40;99.90;;;;;;5112220;27;19915;-70
2022/07/28 02:58:46;;;;;;;;;;;10.40;99.90;;;;;;5144548;27;19926;-70
2022/07/28 03:01:12;;;;;;;;;;;10.50;99.90;;;;;;5117496;27;19923;-70
2022/07/28 03:03:38;;;;;;;;;;;10.50;99.90;;;;;;5100098;28;19955;-70
2022/07/28 03:06:03;;;;;;;;;;;10.50;99.90;;;;;;5094521;27;19930;-70
2022/07/28 03:08:30;;;;;;;;;;;10.50;99.90;;;;;;5094302;28;20015;-70
2022/07/28 03:11:08;;;;;;;;;;;10.60;99.90;;;;;;5102187;27;19955;-70
2022/07/28 03:13:34;;;;;;;;;;;10.60;99.90;;;;;;5127697;27;19915;-70
2022/07/28 03:16:00;;;;;;;;;;;10.70;99.90;;;;;;5102345;27;20267;-70
2022/07/28 03:18:27;;;;;;;;;;;10.60;99.90;;;;;;5125969;27;20366;-70
2022/07/28 03:20:56;;;;;;;;;;;10.60;99.90;;;;;;5126667;27;19923;-70
2022/07/28 03:23:24;;;;;;;;;;;10.60;99.90;;;;;;5125513;27;20366;-70
2022/07/28 03:25:50;;;;;;;;;;;10.80;99.90;;;;;;5091705;27;19939;-70
2022/07/28 03:28:18;;;;;;;;;;;10.70;99.90;;;;;;5123601;27;19920;-70
2022/07/28 03:30:50;;;;;;;;;;;10.80;99.90;;;;;;5094160;28;20322;-70
2022/07/28 03:33:17;;;;;;;;;;;10.90;99.90;;;;;;5093620;28;19984;-70
2022/07/28 03:35:44;;;;;;;;;;;11.00;99.90;;;;;;5091901;28;19920;-70
2022/07/28 03:38:12;;;;;;;;;;;11.10;99.90;;;;;;5092237;28;19920;-70
2022/07/28 03:40:38;;;;;;;;;;;11.00;99.90;;;;;;5127109;28;19931;-70
2022/07/28 03:43:07;;;;;;;;;;;11.00;99.90;;;;;;5092958;28;19968;-70
2022/07/28 03:45:33;;;;;;;;;;;11.10;99.90;;;;;;5102289;28;19941;-70
2022/07/28 03:47:59;;;;;;;;;;;11.10;99.90;;;;;;5084262;28;19916;-70
2022/07/28 03:50:29;;;;;;;;;;;11.10;99.90;;;;;;5100883;28;19916;-70
2022/07/28 03:52:55;;;;;;;;;;;11.30;99.90;;;;;;5124770;27;19916;-70
2022/07/28 03:55:21;;;;;;;;;;;11.30;99.90;;;;;;5125876;27;19926;-70
2022/07/28 03:57:47;;;;;;;;;;;11.50;99.90;;;;;;5092640;28;19935;-70
2022/07/28 04:00:15;;;;;;;;;;;11.50;99.90;;;;;;5105593;28;20109;-69
2022/07/28 04:02:42;;;;;;;;;;;11.50;99.90;;;;;;5095712;28;19923;-70
2022/07/28 04:05:09;;;;;;;;;;;11.60;99.90;;;;;;5107078;28;20271;-70
2022/07/28 04:07:35;;;;;;;;;;;11.60;99.90;;;;;;5097521;27;20244;-70
2022/07/28 04:10:01;;;;;;;;;;;11.60;99.90;;;;;;5107329;28;19927;-70
2022/07/28 04:12:26;;;;;;;;;;;11.60;99.90;;;;;;5109199;28;20317;-69
2022/07/28 04:14:52;;;;;;;;;;;11.80;99.90;;;;;;5110391;28;19942;-70
2022/07/28 04:17:17;;;;;;;;;;;11.70;99.90;;;;;;5101563;27;19923;-70
2022/07/28 04:19:43;;;;;;;;;;;11.70;99.90;;;;;;5133311;27;19959;-70
2022/07/28 04:22:08;;;;;;;;;;;11.80;99.90;;;;;;5109299;27;19922;-70
2022/07/28 04:24:34;;;;;;;;;;;11.80;99.90;;;;;;5143488;27;19916;-70
2022/07/28 04:26:59;;;;;;;;;;;11.90;99.90;;;;;;5092545;28;19923;-70
2022/07/28 04:29:25;;;;;;;;;;;11.80;99.90;;;;;;5131955;27;20428;-70
2022/07/28 04:31:50;;;;;;;;;;;12.00;99.90;;;;;;5125276;27;19927;-70
2022/07/28 04:34:16;;;;;;;;;;;11.90;99.90;;;;;;5144646;27;20321;-71
2022/07/28 04:36:42;;;;;;;;;;;11.90;99.90;;;;;;5098878;28;19927;-70
2022/07/28 04:39:09;;;;;;;;;;;11.90;99.90;;;;;;5127005;27;19998;-69
2022/07/28 04:41:35;;;;;;;;;;;11.90;99.90;;;;;;5124209;27;19931;-69
2022/07/28 04:44:00;;;;;;;;;;;12.10;99.90;;;;;;5086836;28;19920;-70
2022/07/28 04:46:26;;;;;;;;;;;11.90;99.90;;;;;;5114847;27;19916;-69
2022/07/28 04:48:52;;;;;;;;;;;11.90;99.90;;;;;;5109255;28;19916;-69
2022/07/28 04:51:17;;;;;;;;;;;12.00;99.90;;;;;;5119797;27;20282;-69
2022/07/28 04:53:43;;;;;;;;;;;12.10;99.90;;;;;;5091760;28;19919;-69
2022/07/28 04:56:08;;;;;;;;;;;12.00;99.90;;;;;;5093929;28;20382;-69
2022/07/28 04:58:34;;;;;;;;;;;12.00;99.90;;;;;;5093952;28;19919;-69
2022/07/28 05:00:59;;;;;;;;;;;12.10;99.90;;;;;;5127662;27;19924;-69
2022/07/28 05:03:25;;;;;;;;;;;12.00;99.90;;;;;;5094636;28;19920;-69
2022/07/28 05:05:51;;;;;;;;;;;12.10;99.90;;;;;;5092219;28;19987;-69
2022/07/28 05:08:16;;;;;;;;;;;12.10;99.90;;;;;;5111548;28;20019;-70
2022/07/28 05:10:42;;;;;;;;;;;11.90;99.90;;;;;;5096762;28;19922;-70
2022/07/28 05:13:07;;;;;;;;;;;12.10;99.90;;;;;;5106318;28;19923;-69
2022/07/28 05:15:33;;;;;;;;;;;12.10;99.90;;;;;;5146661;27;19915;-71
2022/07/28 05:17:59;;;;;;;;;;;12.20;99.90;;;;;;5113108;27;19963;-70
2022/07/28 05:20:25;;;;;;;;;;;12.20;99.90;;;;;;5146723;27;20378;-70
2022/07/28 05:22:52;;;;;;;;;;;12.30;99.90;;;;;;5127836;27;20028;-70
2022/07/28 05:25:19;;;;;;;;;;;12.40;99.90;;;;;;5127044;27;19919;-71
2022/07/28 05:27:45;;;;;;;;;;;12.50;99.90;;;;;;5095362;28;20396;-70
2022/07/28 05:30:10;;;;;;;;;;;12.50;99.90;;;;;;5093909;27;20378;-70
2022/07/28 05:32:36;;;;;;;;;;;12.80;99.90;;;;;;5099517;28;19937;-70
2022/07/28 05:35:02;;;;;;;;;;;12.70;99.90;;;;;;5104921;27;20354;-70
2022/07/28 05:37:28;;;;;;;;;;;12.80;99.90;;;;;;5103203;28;20302;-70
2022/07/28 05:39:53;;;;;;;;;;;12.80;99.90;;;;;;5131217;27;19927;-70
2022/07/28 05:42:19;;;;;;;;;;;13.00;99.90;;;;;;5106912;27;19968;-70
2022/07/28 05:44:44;;;;;;;;;;;13.00;99.90;;;;;;5111436;28;20124;-70
2022/07/28 05:47:10;;;;;;;;;;;13.30;99.90;;;;;;5094676;28;19915;-70
2022/07/28 05:49:36;;;;;;;;;;;13.30;99.90;;;;;;5094857;28;19919;-71
2022/07/28 05:52:02;;;;;;;;;;;13.30;99.90;;;;;;5127212;27;19919;-71
2022/07/28 05:54:27;;;;;;;;;;;13.50;99.90;;;;;;5140653;27;19920;-70
2022/07/28 05:56:53;;;;;;;;;;;13.50;99.90;;;;;;5084195;27;19935;-70
2022/07/28 05:59:18;;;;;;;;;;;13.60;99.90;;;;;;5091586;28;19922;-71
2022/07/28 06:01:44;;;;;;;;;;;13.70;99.90;;;;;;5100705;28;19915;-70
2022/07/28 06:04:10;;;;;;;;;;;13.80;99.90;;;;;;5096768;27;19924;-70
2022/07/28 06:06:35;;;;;;;;;;;13.80;99.90;;;;;;5093319;28;20594;-70
2022/07/28 06:09:01;;;;;;;;;;;13.80;99.90;;;;;;5092301;27;19919;-71
2022/07/28 06:11:27;;;;;;;;;;;13.90;99.90;;;;;;5123565;27;20010;-71
2022/07/28 06:13:52;;;;;;;;;;;14.00;99.90;;;;;;5076256;28;19922;-71
2022/07/28 06:16:19;;;;;;;;;;;14.10;99.90;;;;;;5094422;27;19923;-70
2022/07/28 06:18:45;;;;;;;;;;;14.20;99.90;;;;;;5137920;27;19916;-71
2022/07/28 06:21:10;;;;;;;;;;;14.30;99.90;;;;;;5095374;27;19924;-70
2022/07/28 06:23:36;;;;;;;;;;;14.30;99.90;;;;;;5104386;28;19934;-70
2022/07/28 06:26:01;;;;;;;;;;;14.40;99.90;;;;;;5096051;28;19915;-70
2022/07/28 06:28:27;;;;;;;;;;;14.40;99.90;;;;;;5124841;27;19915;-70
2022/07/28 06:30:52;;;;;;;;;;;14.50;99.90;;;;;;5133089;27;19953;-70
2022/07/28 06:33:18;;;;;;;;;;;14.60;99.90;;;;;;5109684;27;19919;-70
2022/07/28 06:35:44;;;;;;;;;;;14.60;99.90;;;;;;5093770;28;19966;-70
2022/07/28 06:38:09;;;;;;;;;;;14.70;99.90;;;;;;5094255;28;20381;-70
2022/07/28 06:40:35;;;;;;;;;;;14.70;99.90;;;;;;5092384;27;19920;-70
2022/07/28 06:43:01;;;;;;;;;;;14.70;99.90;;;;;;5126705;27;19923;-70
2022/07/28 06:45:26;;;;;;;;;;;14.80;99.90;;;;;;5102880;27;19944;-70
2022/07/28 06:47:52;;;;;;;;;;;14.90;99.90;;;;;;5088404;28;20010;-70
2022/07/28 06:50:18;;;;;;;;;;;14.90;99.90;;;;;;5092971;28;19965;-70
2022/07/28 06:52:44;;;;;;;;;;;14.90;99.90;;;;;;5107935;28;19919;-71
2022/07/28 06:55:11;;;;;;;;;;;14.90;99.90;;;;;;5090227;27;19922;-70
2022/07/28 06:57:36;;;;;;;;;;;14.90;99.90;;;;;;5126580;27;19923;-71
2022/07/28 07:00:03;;;;;;;;;;;15.00;99.90;;;;;;5100155;27;19915;-70
2022/07/28 07:02:29;;;;;;;;;;;15.00;99.90;;;;;;5127434;27;19921;-70
2022/07/28 07:04:55;;;;;;;;;;;15.00;99.90;;;;;;5092114;28;20007;-70
2022/07/28 07:07:21;;;;;;;;;;;15.00;99.90;;;;;;5091979;28;20339;-70
2022/07/28 07:09:47;;;;;;;;;;;14.90;99.90;;;;;;5123056;27;20358;-70
2022/07/28 07:12:12;;;;;;;;;;;14.80;99.90;;;;;;5099290;27;19967;-70
2022/07/28 07:14:38;;;;;;;;;;;14.80;99.90;;;;;;5088850;28;20701;-70
2022/07/28 07:17:03;;;;;;;;;;;14.70;99.90;;;;;;5112381;27;19949;-70
2022/07/28 07:19:29;;;;;;;;;;;14.60;99.90;;;;;;5092147;28;19919;-70
2022/07/28 07:21:55;;;;;;;;;;;14.60;99.90;;;;;;5093719;28;20331;-70
2022/07/28 07:24:20;;;;;;;;;;;14.50;99.90;;;;;;5092641;28;20520;-70
2022/07/28 07:26:46;;;;;;;;;;;14.60;99.90;;;;;;5127488;27;19919;-70
2022/07/28 07:29:11;;;;;;;;;;;14.60;99.90;;;;;;5090689;28;19919;-70
2022/07/28 07:31:38;;;;;;;;;;;14.60;99.90;;;;;;5108266;28;19920;-70
2022/07/28 07:34:04;;;;;;;;;;;14.60;99.90;;;;;;5092316;28;20365;-70
2022/07/28 07:36:29;;;;;;;;;;;14.60;99.90;;;;;;5081618;28;19923;-70
2022/07/28 07:38:55;;;;;;;;;;;14.50;99.90;;;;;;5104321;28;19915;-70
2022/07/28 07:41:21;;;;;;;;;;;14.60;99.90;;;;;;5109473;27;20370;-70
2022/07/28 07:43:47;;;;;;;;;;;14.60;99.90;;;;;;5124333;27;19956;-70
2022/07/28 07:46:13;;;;;;;;;;;14.80;99.90;;;;;;5102028;28;20008;-75
2022/07/28 07:48:38;;;;;;;;;;;14.90;99.90;;;;;;5100682;28;19988;-75
2022/07/28 07:51:04;;;;;;;;;;;15.00;99.90;;;;;;5096225;28;19916;-75
2022/07/28 07:53:29;;;;;;;;;;;15.00;99.90;;;;;;5130676;27;19916;-75
2022/07/28 07:55:55;;;;;;;;;;;15.20;99.90;;;;;;5079593;28;20002;-76
2022/07/28 07:58:21;;;;;;;;;;;15.20;99.90;;;;;;5097943;28;20016;-75
2022/07/28 08:00:46;;;;;;;;;;;15.40;99.90;;;;;;5098002;28;19916;-75
2022/07/28 08:03:13;;;;;;;;;;;15.40;99.90;;;;;;5147479;27;19966;-75
2022/07/28 08:05:39;;;;;;;;;;;15.50;99.90;;;;;;5106275;28;19967;-75
2022/07/28 08:08:04;;;;;;;;;;;15.50;99.90;;;;;;5093537;28;19993;-75
2022/07/28 08:10:30;;;;;;;;;;;15.60;99.90;;;;;;5147995;27;20030;-75
2022/07/28 08:12:55;;;;;;;;;;;15.60;99.90;;;;;;5131337;27;19939;-76
2022/07/28 08:15:21;;;;;;;;;;;15.70;99.90;;;;;;5111738;27;19923;-75
2022/07/28 08:17:47;;;;;;;;;;;15.70;99.90;;;;;;5128866;27;19928;-75
2022/07/28 08:20:12;;;;;;;;;;;15.70;99.90;;;;;;5108778;28;19923;-75
2022/07/28 08:22:51;;;;;;;;;;;15.70;99.90;;;;;;5097182;28;19955;-75
2022/07/28 08:25:17;;;;;;;;;;;15.70;99.90;;;;;;5093222;28;19916;-75
2022/07/28 08:27:43;;;;;;;;;;;15.70;99.90;;;;;;5100807;28;19916;-75
2022/07/28 08:30:09;;;;;;;;;;;15.80;99.90;;;;;;5096847;28;19919;-75
2022/07/28 08:32:35;;;;;;;;;;;16.00;99.90;;;;;;5103726;28;20018;-75
2022/07/28 08:35:00;;;;;;;;;;;16.00;99.90;;;;;;5094061;28;20341;-75
2022/07/28 08:37:26;;;;;;;;;;;16.20;99.90;;;;;;5095434;28;19931;-75
2022/07/28 08:39:51;;;;;;;;;;;16.20;99.90;;;;;;5087660;28;20328;-75
2022/07/28 08:42:20;;;;;;;;;;;16.40;99.90;;;;;;5113034;28;19922;-75
2022/07/28 08:44:48;;;;;;;;;;;16.50;99.90;;;;;;5097172;28;19915;-75
2022/07/28 08:47:14;;;;;;;;;;;16.60;99.90;;;;;;5099822;27;19923;-75
2022/07/28 08:49:43;;;;;;;;;;;16.70;99.90;;;;;;5145497;27;19916;-75
2022/07/28 08:52:10;;;;;;;;;;;16.80;99.90;;;;;;5124804;27;19923;-75
2022/07/28 08:54:36;;;;;;;;;;;16.80;99.90;;;;;;5096813;28;20030;-75
2022/07/28 08:57:02;;;;;;;;;;;16.90;99.90;;;;;;5130308;27;20018;-75
2022/07/28 08:59:28;;;;;;;;;;;17.00;99.90;;;;;;5096971;28;19920;-75
2022/07/28 09:01:53;;;;;;;;;;;17.10;99.90;;;;;;5096595;28;19923;-75
2022/07/28 09:04:20;;;;;;;;;;;17.20;99.90;;;;;;5113210;28;19916;-75
2022/07/28 09:06:46;;;;;;;;;;;17.20;99.90;;;;;;5100891;28;19961;-75
2022/07/28 09:09:12;;;;;;;;;;;17.30;99.90;;;;;;5121527;27;19915;-75
2022/07/28 09:11:38;;;;;;;;;;;17.40;99.90;;;;;;5130407;27;20328;-75
2022/07/28 09:14:04;;;;;;;;;;;17.40;99.90;;;;;;5091281;28;19926;-75
2022/07/28 09:16:30;;;;;;;;;;;17.40;99.90;;;;;;5092475;28;20250;-76
2022/07/28 09:18:56;;;;;;;;;;;17.60;99.90;;;;;;5095268;28;19919;-75
2022/07/28 09:21:22;;;;;;;;;;;17.70;99.90;;;;;;5129557;27;19916;-76
2022/07/28 09:23:48;;;;;;;;;;;17.90;99.90;;;;;;5130338;27;19920;-75
2022/07/28 09:26:14;;;;;;;;;;;17.90;99.90;;;;;;5112915;28;19926;-75
2022/07/28 09:28:57;;;;;;;;;;;18.10;99.90;;;;;;5094954;28;20254;-76
2022/07/28 09:31:24;;;;;;;;;;;18.10;99.90;;;;;;5107869;27;19926;-76
2022/07/28 09:34:00;;;;;;;;;;;18.20;99.90;;;;;;5123049;27;19916;-76
2022/07/28 09:36:26;;;;;;;;;;;18.60;99.90;;;;;;5106647;28;19922;-76
2022/07/28 09:38:52;;;;;;;;;;;19.10;99.90;;;;;;5095570;28;19915;-76
2022/07/28 09:41:20;;;;;;;;;;;19.50;99.90;;;;;;5128959;27;20030;-76
2022/07/28 09:43:46;;;;;;;;;;;19.70;99.90;;;;;;5126593;27;20282;-76
2022/07/28 09:46:16;;;;;;;;;;;19.90;98.20;;;;;;5096714;28;20362;-76
2022/07/28 09:48:47;;;;;;;;;;;20.30;99.70;;;;;;5095259;27;19958;-76
2022/07/28 09:51:13;;;;;;;;;;;20.60;99.10;;;;;;5135441;27;19920;-76
2022/07/28 09:53:39;;;;;;;;;;;20.90;97.20;;;;;;5094886;28;19920;-76
2022/07/28 09:56:06;;;;;;;;;;;21.00;99.10;;;;;;5098845;28;19927;-75
2022/07/28 09:58:31;;;;;;;;;;;20.90;98.10;;;;;;5095892;28;19998;-76
2022/07/28 10:01:11;;;;;;;;;;;21.10;96.80;;;;;;5094755;28;20053;-76
2022/07/28 10:03:38;;;;;;;;;;;21.10;97.50;;;;;;5095672;28;19916;-76
2022/07/28 10:06:06;;;;;;;;;;;20.80;96.90;;;;;;5095722;27;19919;-76
2022/07/28 10:08:51;;;;;;;;;;;20.50;96.20;;;;;;5095263;28;19915;-76
2022/07/28 10:11:18;;;;;;;;;;;20.30;98.10;;;;;;5112574;28;19919;-76
2022/07/28 10:14:01;;;;;;;;;;;20.30;96.80;;;;;;5087134;28;19920;-76
2022/07/28 10:16:28;;;;;;;;;;;20.10;97.10;;;;;;5095139;28;19915;-76
2022/07/28 10:18:55;;;;;;;;;;;19.80;97.60;;;;;;5095650;28;19915;-76
2022/07/28 10:21:21;;;;;;;;;;;19.50;97.00;;;;;;5102729;28;19941;-75
2022/07/28 10:23:50;;;;;;;;;;;19.20;97.10;;;;;;5089086;28;19992;-76
2022/07/28 10:26:19;;;;;;;;;;;19.00;97.80;;;;;;5128696;27;20039;-76
2022/07/28 10:28:49;;;;;;;;;;;18.80;98.80;;;;;;5130014;27;19920;-76
2022/07/28 10:31:20;;;;;;;;;;;18.70;98.00;;;;;;5094843;28;19915;-76
2022/07/28 10:33:49;;;;;;;;;;;18.70;98.70;;;;;;5094908;28;19920;-76
2022/07/28 10:36:16;;;;;;;;;;;19.10;99.60;;;;;;5112451;28;20345;-76
2022/07/28 10:38:42;;;;;;;;;;;19.50;98.90;;;;;;5095044;28;19920;-75
2022/07/28 10:41:09;;;;;;;;;;;20.00;96.20;;;;;;5111792;28;19964;-75
2022/07/28 10:43:35;;;;;;;;;;;20.20;95.60;;;;;;5113620;28;20270;-76
2022/07/28 10:46:02;;;;;;;;;;;20.50;95.30;;;;;;5129194;27;19916;-76
2022/07/28 10:48:28;;;;;;;;;;;20.70;94.90;;;;;;5129503;27;20270;-76
2022/07/28 10:50:54;;;;;;;;;;;20.90;94.80;;;;;;5111825;28;19924;-76
2022/07/28 10:53:39;;;;;;;;;;;21.10;94.10;;;;;;5094719;28;20016;-76
2022/07/28 10:56:08;;;;;;;;;;;21.30;94.60;;;;;;5093170;28;19916;-76
2022/07/28 10:58:46;;;;;;;;;;;21.30;93.60;;;;;;5094324;28;19980;-76
2022/07/28 11:01:31;;;;;;;;;;;21.20;94.20;;;;;;5128386;27;19942;-76
2022/07/28 11:03:57;;;;;;;;;;;20.90;94.10;;;;;;5128723;27;19915;-76
2022/07/28 11:06:38;;;;;;;;;;;20.50;93.50;;;;;;5093465;28;19941;-76
2022/07/28 11:09:16;;;;;;;;;;;20.70;94.70;;;;;;5093882;28;19926;-77
2022/07/28 11:11:52;;;;;;;;;;;20.70;94.70;;;;;;5086298;27;20342;-76
2022/07/28 11:14:36;;;;;;;;;;;20.60;95.30;;;;;;5101034;28;20389;-76
2022/07/28 11:17:02;;;;;;;;;;;20.30;94.50;;;;;;5116414;27;20001;-76
2022/07/28 11:19:28;;;;;;;;;;;20.00;94.40;;;;;;5093315;28;20049;-76
2022/07/28 11:22:12;;;;;;;;;;;19.70;94.80;;;;;;5107232;28;20294;-76
2022/07/28 11:24:57;;;;;;;;;;;19.50;95.00;;;;;;5128155;27;19920;-72
2022/07/28 11:27:41;;;;;;;;;;;19.30;96.50;;;;;;5093194;28;20370;-71
2022/07/28 11:30:11;;;;;;;;;;;19.00;96.60;;;;;;5125745;27;19949;-71
2022/07/28 11:32:49;;;;;;;;;;;18.90;96.40;;;;;;5086597;28;19927;-71
2022/07/28 11:35:17;;;;;;;;;;;18.90;96.80;;;;;;5102055;28;19941;-72
2022/07/28 11:38:01;;;;;;;;;;;19.00;96.50;;;;;;5088488;28;19934;-71
2022/07/28 11:40:29;;;;;;;;;;;18.90;96.80;;;;;;5086753;28;20018;-71
2022/07/28 11:43:14;;;;;;;;;;;19.00;97.10;;;;;;5092831;28;19931;-71
2022/07/28 11:45:40;;;;;;;;;;;19.00;96.80;;;;;;5084576;28;20362;-72
2022/07/28 11:48:12;;;;;;;;;;;19.20;97.70;;;;;;5089472;28;19920;-71
2022/07/28 11:50:38;;;;;;;;;;;19.30;96.90;;;;;;5093613;28;20030;-72
2022/07/28 11:53:03;;;;;;;;;;;19.40;96.50;;;;;;5093838;28;20018;-72
2022/07/28 11:55:29;;;;;;;;;;;19.40;96.30;;;;;;5100716;28;19922;-72
2022/07/28 11:57:55;;;;;;;;;;;19.50;96.10;;;;;;5079811;28;20002;-71
2022/07/28 12:00:21;;;;;;;;;;;19.40;96.40;;;;;;5124779;27;20011;-72
2022/07/28 12:02:47;;;;;;;;;;;19.40;96.60;;;;;;5108815;28;20043;-72
2022/07/28 12:05:13;;;;;;;;;;;19.30;95.90;;;;;;5108839;28;19970;-72
2022/07/28 12:07:41;;;;;;;;;;;19.40;96.20;;;;;;5100273;28;19954;-72
2022/07/28 12:10:34;;;;;;;;;;;19.50;96.40;;;;;;5090273;28;20029;-72
2022/07/28 12:13:00;;;;;;;;;;;19.60;96.10;;;;;;5087598;28;19915;-72
2022/07/28 12:15:26;;;;;;;;;;;19.70;96.00;;;;;;5091662;28;19966;-72
2022/07/28 12:17:52;;;;;;;;;;;19.60;95.90;;;;;;5092044;28;19926;-72
2022/07/28 12:20:18;;;;;;;;;;;19.70;95.20;;;;;;5106967;28;19916;-71
2022/07/28 12:22:58;;;;;;;;;;;19.80;94.50;;;;;;5092920;28;19919;-70
2022/07/28 12:25:24;;;;;;;;;;;19.80;95.30;;;;;;5121076;27;20002;-71
2022/07/28 12:27:50;;;;;;;;;;;19.80;94.30;;;;;;5099148;28;20010;-71
2022/07/28 12:30:26;;;;;;;;;;;19.90;94.10;;;;;;5129020;27;20002;-71
2022/07/28 12:32:52;;;;;;;;;;;20.10;93.90;;;;;;5138984;27;19931;-71
2022/07/28 12:35:18;;;;;;;;;;;20.40;94.10;;;;;;5112008;27;19973;-71
2022/07/28 12:37:47;;;;;;;;;;;20.70;94.50;;;;;;5093381;28;20336;-71
2022/07/28 12:40:16;;;;;;;;;;;21.10;93.80;;;;;;5111713;28;19951;-71
2022/07/28 12:42:42;;;;;;;;;;;21.70;94.40;;;;;;5091693;28;19920;-69
2022/07/28 12:45:09;;;;;;;;;;;21.90;92.70;;;;;;5130072;27;19919;-69
2022/07/28 12:47:34;;;;;;;;;;;22.20;93.40;;;;;;5095095;28;20408;-70
2022/07/28 12:50:12;;;;;;;;;;;22.40;92.20;;;;;;5125170;27;20018;-70
2022/07/28 12:52:37;;;;;;;;;;;22.30;92.40;;;;;;5126520;27;19966;-70
2022/07/28 12:55:18;;;;;;;;;;;22.10;92.00;;;;;;5111367;28;20290;-71
2022/07/28 12:57:46;;;;;;;;;;;21.90;92.10;;;;;;5129015;27;19923;-70
2022/07/28 13:00:13;;;;;;;;;;;21.80;92.40;;;;;;5095142;28;19981;-70
2022/07/28 13:02:39;;;;;;;;;;;21.50;93.90;;;;;;5110592;28;19916;-70
2022/07/28 13:05:06;;;;;;;;;;;21.50;91.80;;;;;;5145415;27;19923;-70
2022/07/28 13:07:32;;;;;;;;;;;21.50;92.20;;;;;;5122495;27;19954;-70
2022/07/28 13:10:05;;;;;;;;;;;21.60;92.50;;;;;;5092371;28;19959;-70
2022/07/28 13:12:31;;;;;;;;;;;21.70;92.80;;;;;;5098481;27;20002;-69
2022/07/28 13:14:57;;;;;;;;;;;21.70;93.10;;;;;;5135191;27;20011;-70
2022/07/28 13:17:25;;;;;;;;;;;21.90;92.60;;;;;;5126157;27;20437;-70
2022/07/28 13:20:02;;;;;;;;;;;21.80;92.60;;;;;;5111939;28;19927;-69
2022/07/28 13:22:28;;;;;;;;;;;21.50;92.90;;;;;;5094459;28;20336;-70
2022/07/28 13:24:57;;;;;;;;;;;21.40;92.10;;;;;;5095383;28;20014;-70
2022/07/28 13:27:23;;;;;;;;;;;21.50;92.60;;;;;;5093818;28;20255;-70
2022/07/28 13:29:49;;;;;;;;;;;21.50;92.40;;;;;;5112469;28;19935;-70
2022/07/28 13:32:15;;;;;;;;;;;21.50;92.80;;;;;;5094785;28;19946;-70
2022/07/28 13:34:41;;;;;;;;;;;21.70;93.10;;;;;;5095181;28;20381;-70
2022/07/28 13:37:07;;;;;;;;;;;21.90;92.90;;;;;;5145656;27;19937;-70
2022/07/28 13:39:32;;;;;;;;;;;21.80;93.40;;;;;;5094614;28;19919;-70
2022/07/28 13:41:58;;;;;;;;;;;21.60;93.30;;;;;;5127915;27;19919;-70
2022/07/28 13:44:25;;;;;;;;;;;21.30;93.10;;;;;;5127979;27;20439;-70
2022/07/28 13:46:50;;;;;;;;;;;21.10;93.40;;;;;;5094721;28;19917;-71
2022/07/28 13:49:16;;;;;;;;;;;21.00;93.20;;;;;;5095137;28;19920;-70
2022/07/28 13:51:41;;;;;;;;;;;20.70;93.50;;;;;;5110233;28;20017;-70
2022/07/28 13:54:07;;;;;;;;;;;20.50;93.70;;;;;;5094756;28;19919;-70
2022/07/28 13:56:33;;;;;;;;;;;20.40;93.60;;;;;;5126106;27;19915;-70
2022/07/28 13:58:59;;;;;;;;;;;20.40;93.50;;;;;;5145923;27;20281;-70
2022/07/28 14:01:25;;;;;;;;;;;20.40;93.30;;;;;;5093248;28;19926;-70
2022/07/28 14:03:50;;;;;;;;;;;20.30;93.40;;;;;;5129071;27;19919;-70
2022/07/28 14:06:16;;;;;;;;;;;20.30;93.70;;;;;;5094772;28;20358;-70
2022/07/28 14:08:41;;;;;;;;;;;20.40;93.70;;;;;;5094108;28;20367;-70
2022/07/28 14:11:07;;;;;;;;;;;20.60;93.70;;;;;;5094215;28;20332;-70
2022/07/28 14:13:35;;;;;;;;;;;20.70;93.70;;;;;;5126364;27;19916;-70
2022/07/28 14:16:00;;;;;;;;;;;20.70;93.40;;;;;;5094388;28;20333;-70
2022/07/28 14:18:26;;;;;;;;;;;20.60;93.30;;;;;;5092665;28;19924;-70